Time;durP1;ratioP1;P1;durP2;ratioP2;P2;SDS_P1;SDS_P2;PMS_P1;PMS_P2;Temp;Humidity;BMP_temperature;BMP_pressure;BME280_temperature;BME280_humidity;BME280_pressure;Samples;Min_cycle;Max_cycle;Signal;HPM_P1;HPM_P2
2023/12/01 00:00:58;;;;;;;15.70;8.68;;;;;;;-2.95;100.00;100493.28;4909590;28;20039;-70
2023/12/01 00:03:25;;;;;;;14.90;8.75;;;;;;;-2.93;100.00;100499.16;4906715;28;20651;-71
2023/12/01 00:05:51;;;;;;;16.77;8.63;;;;;;;-2.94;100.00;100497.53;4888933;28;20045;-71
2023/12/01 00:08:17;;;;;;;15.85;9.10;;;;;;;-3.02;100.00;100508.94;4920778;28;20639;-72
2023/12/01 00:10:42;;;;;;;15.48;8.85;;;;;;;-3.05;100.00;100515.38;4920418;28;20130;-71
2023/12/01 00:13:08;;;;;;;16.27;8.88;;;;;;;-3.04;100.00;100509.13;4924289;28;20121;-71
2023/12/01 00:15:33;;;;;;;13.38;8.10;;;;;;;-3.03;100.00;100513.38;4907878;29;20039;-69
2023/12/01 00:17:59;;;;;;;13.27;8.23;;;;;;;-3.05;100.00;100515.38;4918751;28;20078;-69
2023/12/01 00:20:25;;;;;;;13.95;8.93;;;;;;;-3.11;100.00;100503.03;4941101;28;20478;-68
2023/12/01 00:22:51;;;;;;;14.77;9.18;;;;;;;-3.10;100.00;100502.03;4926737;28;20058;-70
2023/12/01 00:25:17;;;;;;;;;;;;;;;-3.12;100.00;100501.38;4942797;28;20082;-70
2023/12/01 00:27:43;;;;;;;11.48;7.32;;;;;;;-3.11;100.00;100502.22;4938597;28;20017;-70
2023/12/01 00:30:09;;;;;;;15.57;8.48;;;;;;;-3.12;100.00;100503.19;4928820;29;20066;-69
2023/12/01 00:32:35;;;;;;;15.20;7.75;;;;;;;-3.12;100.00;100497.94;4926797;28;20544;-69
2023/12/01 00:35:00;;;;;;;15.57;9.27;;;;;;;-3.16;100.00;100508.00;4930012;28;20046;-69
2023/12/01 00:37:26;;;;;;;17.85;10.10;;;;;;;-3.16;100.00;100505.38;4925425;28;20063;-69
2023/12/01 00:39:52;;;;;;;14.25;8.40;;;;;;;-3.15;100.00;100512.25;4929630;29;20039;-69
2023/12/01 00:42:17;;;;;;;13.88;8.75;;;;;;;-3.16;100.00;100508.00;4905810;28;20101;-69
2023/12/01 00:44:45;;;;;;;15.82;8.60;;;;;;;-3.17;100.00;100516.06;4926487;28;20125;-69
2023/12/01 00:47:10;;;;;;;14.63;8.80;;;;;;;-3.22;100.00;100521.84;4926345;29;20034;-70
2023/12/01 00:49:36;;;;;;;18.17;9.00;;;;;;;-3.22;100.00;100519.22;4909289;28;20047;-70
2023/12/01 00:52:04;;;;;;;16.67;9.40;;;;;;;-3.23;100.00;100528.06;4908316;28;20303;-70
2023/12/01 00:54:30;;;;;;;15.20;8.68;;;;;;;-3.23;100.00;100528.06;4921589;28;20448;-70
2023/12/01 00:56:56;;;;;;;14.95;8.88;;;;;;;-3.23;100.00;100533.31;4894825;29;20039;-68
2023/12/01 00:59:21;;;;;;;14.82;9.30;;;;;;;-3.27;100.00;100526.00;4909789;28;20110;-71
2023/12/01 01:01:47;;;;;;;15.40;9.32;;;;;;;-3.29;100.00;100526.19;4902453;28;20101;-71
2023/12/01 01:04:13;;;;;;;15.45;8.98;;;;;;;-3.31;100.00;100528.19;4906272;29;20413;-69
2023/12/01 01:06:39;;;;;;;15.15;9.63;;;;;;;-3.35;100.00;100534.78;4918802;29;20126;-68
2023/12/01 01:09:05;;;;;;;15.95;9.13;;;;;;;-3.39;100.00;100530.88;4923055;28;20046;-69
2023/12/01 01:11:30;;;;;;;17.70;9.88;;;;;;;-3.40;100.00;100526.66;4932378;28;20031;-70
2023/12/01 01:13:56;;;;;;;17.20;10.05;;;;;;;-3.41;100.00;100532.88;4905226;28;20045;-70
2023/12/01 01:16:22;;;;;;;17.50;9.57;;;;;;;-3.44;100.00;100526.22;4904703;29;20043;-69
2023/12/01 01:18:48;;;;;;;18.65;9.32;;;;;;;-3.46;100.00;100530.00;4924930;28;20069;-69
2023/12/01 01:21:14;;;;;;;18.63;9.95;;;;;;;-3.48;100.00;100529.38;4922766;29;20131;-70
2023/12/01 01:23:40;;;;;;;17.13;8.98;;;;;;;-3.48;100.00;100529.38;4909362;28;20039;-70
2023/12/01 01:26:07;;;;;;;14.65;8.43;;;;;;;-3.52;100.00;100523.72;4909323;28;20031;-70
2023/12/01 01:28:32;;;;;;;17.48;9.43;;;;;;;-3.56;100.00;100540.75;4923343;28;20071;-69
2023/12/01 01:30:58;;;;;;;15.73;9.05;;;;;;;-3.61;100.00;100541.31;4907302;29;20035;-69
2023/12/01 01:33:24;;;;;;;16.88;9.60;;;;;;;-3.67;100.00;100538.59;4938607;28;20118;-69
2023/12/01 01:35:50;;;;;;;14.50;8.63;;;;;;;-3.75;100.00;100542.13;4921715;29;20138;-70
2023/12/01 01:38:15;;;;;;;16.55;9.68;;;;;;;-3.78;100.00;100534.66;4922590;29;20031;-69
2023/12/01 01:40:42;;;;;;;15.00;8.88;;;;;;;-3.79;100.00;100538.25;4925377;28;20560;-69
2023/12/01 01:43:08;;;;;;;16.52;8.65;;;;;;;-3.88;100.00;100539.31;4924538;28;20733;-69
2023/12/01 01:45:33;;;;;;;17.67;8.82;;;;;;;-3.89;100.00;100537.72;4910316;29;20060;-70
2023/12/01 01:47:59;;;;;;;14.57;8.30;;;;;;;-3.90;100.00;100546.56;4921907;29;20023;-70
2023/12/01 01:50:25;;;;;;;14.68;8.40;;;;;;;-3.94;100.00;100546.09;4933978;28;20449;-69
2023/12/01 01:52:54;;;;;;;14.02;7.68;;;;;;;-3.98;100.00;100542.22;4911018;28;20039;-69
2023/12/01 01:55:20;;;;;;;14.95;7.65;;;;;;;-4.00;100.00;100541.56;4887635;28;20154;-70
2023/12/01 01:57:46;;;;;;;14.05;7.88;;;;;;;-4.02;100.00;100537.50;4899511;29;20039;-69
2023/12/01 02:00:16;;;;;;;;;;;;;;;-4.04;100.00;100532.47;4923708;28;20570;-69
2023/12/01 02:02:42;;;;;;;15.80;7.63;;;;;;;-4.09;100.00;100536.59;4920754;28;20080;-69
2023/12/01 02:05:13;;;;;;;13.73;7.78;;;;;;;-4.21;100.00;100544.06;4907483;28;20041;-69
2023/12/01 02:07:40;;;;;;;14.68;8.23;;;;;;;-4.25;100.00;100548.84;4922591;28;20145;-69
2023/12/01 02:10:07;;;;;;;14.50;7.70;;;;;;;-4.29;100.00;100544.97;4910381;28;20712;-69
2023/12/01 02:12:32;;;;;;;;;;;;;;;-4.31;100.00;100544.34;4911766;28;20544;-69
2023/12/01 02:14:58;;;;;;;11.77;6.57;;;;;;;-4.37;100.00;100542.41;4905026;29;19925;-69
2023/12/01 02:17:23;;;;;;;15.27;7.93;;;;;;;-4.43;100.00;100540.50;4932444;28;20046;-70
2023/12/01 02:19:51;;;;;;;12.85;7.03;;;;;;;-4.49;100.00;100552.47;4936879;28;20466;-69
2023/12/01 02:22:17;;;;;;;13.93;7.70;;;;;;;-4.54;100.00;100547.00;4921535;29;20505;-69
2023/12/01 02:24:42;;;;;;;14.35;7.80;;;;;;;-4.58;100.00;100557.97;4919944;28;20113;-69
2023/12/01 02:27:09;;;;;;;15.27;8.48;;;;;;;-4.67;100.00;100554.59;4903888;29;20028;-68
2023/12/01 02:29:34;;;;;;;15.98;8.85;;;;;;;-4.71;100.00;100556.75;4921693;28;20151;-69
2023/12/01 02:32:00;;;;;;;14.73;7.28;;;;;;;-4.70;100.00;100560.16;4923585;29;20122;-68
2023/12/01 02:34:26;;;;;;;14.10;8.25;;;;;;;-4.69;100.00;100561.78;4920028;28;20585;-69
2023/12/01 02:36:53;;;;;;;14.35;8.27;;;;;;;-4.70;100.00;100558.34;4908864;29;20032;-68
2023/12/01 02:39:19;;;;;;;11.65;7.22;;;;;;;-4.74;100.00;100553.66;4911773;29;20074;-68
2023/12/01 02:41:45;;;;;;;14.65;7.88;;;;;;;-4.81;100.00;100553.56;4942258;28;20049;-69
2023/12/01 02:44:11;;;;;;;17.63;8.57;;;;;;;-4.84;100.00;100553.09;4932145;28;20042;-68
2023/12/01 02:46:36;;;;;;;17.38;9.20;;;;;;;-4.89;100.00;100550.97;4926800;28;20034;-68
2023/12/01 02:49:02;;;;;;;15.25;8.30;;;;;;;-4.92;100.00;100556.56;4905065;29;20110;-68
2023/12/01 02:51:28;;;;;;;15.40;8.90;;;;;;;-4.95;100.00;100551.66;4910902;28;20042;-68
2023/12/01 02:53:54;;;;;;;13.48;7.97;;;;;;;-5.00;100.00;100549.59;4909265;28;20030;-68
2023/12/01 02:56:19;;;;;;;16.67;8.63;;;;;;;-5.01;100.00;100552.38;4945722;28;20038;-68
2023/12/01 02:58:45;;;;;;;14.45;8.07;;;;;;;-5.05;100.00;100556.31;4922762;28;20453;-69
2023/12/01 03:01:11;;;;;;;13.93;7.55;;;;;;;-5.11;100.00;100546.56;4942588;28;20535;-68
2023/12/01 03:03:36;;;;;;;15.40;8.50;;;;;;;-5.12;100.00;100547.53;4919909;29;20043;-68
2023/12/01 03:06:03;;;;;;;12.88;7.40;;;;;;;-5.14;100.00;100547.72;4925583;28;20066;-67
2023/12/01 03:08:41;;;;;;;17.02;8.68;;;;;;;-5.17;100.00;100560.28;4930388;28;20050;-68
2023/12/01 03:11:07;;;;;;;15.15;8.05;;;;;;;-5.16;100.00;100554.09;4938530;28;20027;-68
2023/12/01 03:13:33;;;;;;;15.05;8.90;;;;;;;-5.19;100.00;100564.88;4941322;28;20039;-68
2023/12/01 03:15:59;;;;;;;16.88;8.32;;;;;;;-5.23;100.00;100570.44;4928733;28;20093;-68
2023/12/01 03:18:25;;;;;;;16.92;8.40;;;;;;;-5.19;100.00;100555.25;4937353;28;20043;-68
2023/12/01 03:20:51;;;;;;;14.15;7.80;;;;;;;-5.17;100.00;100570.75;4928152;28;20265;-69
2023/12/01 03:23:16;;;;;;;15.85;8.65;;;;;;;-5.19;100.00;100576.13;4912087;29;20050;-69
2023/12/01 03:25:42;;;;;;;15.32;8.13;;;;;;;-5.19;100.00;100570.09;4926554;28;20039;-69
2023/12/01 03:28:08;;;;;;;15.10;8.25;;;;;;;-5.18;100.00;100561.28;4913680;29;20031;-69
2023/12/01 03:30:33;;;;;;;17.80;9.77;;;;;;;-5.19;100.00;100570.91;4926019;28;20568;-69
2023/12/01 03:32:59;;;;;;;17.02;9.10;;;;;;;-5.16;100.00;100567.94;4910676;29;20062;-70
2023/12/01 03:35:25;;;;;;;18.25;9.75;;;;;;;-5.12;100.00;100571.03;4939031;28;20048;-69
2023/12/01 03:37:56;;;;;;;15.95;8.23;;;;;;;-5.10;100.00;100574.28;4923454;29;20118;-69
2023/12/01 03:40:23;;;;;;;17.30;9.57;;;;;;;-5.07;100.00;100576.56;4927411;28;20031;-69
2023/12/01 03:42:50;;;;;;;16.98;8.30;;;;;;;-5.02;100.00;100579.47;4898496;29;20098;-69
2023/12/01 03:45:16;;;;;;;16.65;8.13;;;;;;;-4.98;100.00;100567.69;4925376;28;20070;-68
2023/12/01 03:47:47;;;;;;;16.65;9.57;;;;;;;-4.95;100.00;100562.94;4908063;28;20032;-68
2023/12/01 03:50:14;;;;;;;17.10;8.52;;;;;;;-4.92;100.00;100567.00;4932808;28;20604;-70
2023/12/01 03:52:41;;;;;;;15.80;9.15;;;;;;;-4.88;100.00;100563.06;4909379;29;20043;-68
2023/12/01 03:55:09;;;;;;;18.10;10.18;;;;;;;-4.84;100.00;100574.78;4941111;28;20035;-67
2023/12/01 03:57:36;;;;;;;19.30;10.15;;;;;;;-4.78;100.00;100566.25;4909687;28;20490;-69
2023/12/01 04:00:07;;;;;;;19.08;9.60;;;;;;;-4.73;100.00;100566.56;4940452;28;20035;-70
2023/12/01 04:02:40;;;;;;;19.55;9.45;;;;;;;-4.65;100.00;100567.50;4941540;28;20060;-69
2023/12/01 04:05:08;;;;;;;22.80;11.38;;;;;;;-4.62;100.00;100577.56;4928307;29;20082;-70
2023/12/01 04:07:35;;;;;;;18.25;9.98;;;;;;;-4.56;100.00;100563.81;4929288;28;20031;-70
2023/12/01 04:10:03;;;;;;;22.95;11.40;;;;;;;-4.49;100.00;100567.34;4907509;28;20051;-70
2023/12/01 04:12:30;;;;;;;19.50;10.38;;;;;;;-4.48;100.00;100575.00;4909452;29;20061;-69
2023/12/01 04:14:57;;;;;;;23.15;11.63;;;;;;;-4.46;100.00;100585.31;4938681;28;20175;-69
2023/12/01 04:17:23;;;;;;;;;;;;;;;-4.45;100.00;100586.94;4905563;29;20084;-69
2023/12/01 04:19:49;;;;;;;17.65;8.77;;;;;;;-4.43;100.00;100582.34;4939492;28;20344;-69
2023/12/01 04:22:15;;;;;;;16.63;8.77;;;;;;;-4.40;100.00;100582.00;4908285;29;20047;-68
2023/12/01 04:24:41;;;;;;;20.70;11.38;;;;;;;-4.36;100.00;100582.44;4895113;28;20069;-68
2023/12/01 04:27:07;;;;;;;20.92;10.85;;;;;;;-4.36;100.00;100572.81;4909914;29;20062;-68
2023/12/01 04:29:33;;;;;;;18.33;10.05;;;;;;;-4.34;100.00;100576.03;4940600;28;20048;-70
2023/12/01 04:31:59;;;;;;;16.23;8.48;;;;;;;-4.29;100.00;100573.72;4910283;29;20046;-70
2023/12/01 04:34:26;;;;;;;17.70;9.90;;;;;;;-4.27;100.00;100582.19;4942287;28;20043;-69
2023/12/01 04:36:52;;;;;;;;;;;;;;;-4.27;100.00;100582.19;4906526;28;20652;-70
2023/12/01 04:39:18;;;;;;;16.15;8.60;;;;;;;-4.26;100.00;100580.41;4923846;29;19918;-70
2023/12/01 04:41:44;;;;;;;18.73;10.20;;;;;;;-4.29;100.00;100573.72;4918029;29;20034;-69
2023/12/01 04:44:10;;;;;;;18.75;9.55;;;;;;;-4.25;100.00;100569.78;4910669;28;20841;-69
2023/12/01 04:46:35;;;;;;;22.83;10.27;;;;;;;-4.21;100.00;100576.25;4926490;28;20086;-69
2023/12/01 04:49:01;;;;;;;19.65;9.55;;;;;;;-4.18;100.00;100583.75;4907437;29;20488;-69
2023/12/01 04:51:28;;;;;;;;;;;;;;;-4.15;100.00;100578.16;4942674;28;20093;-69
2023/12/01 04:53:53;;;;;;;18.88;9.30;;;;;;;-4.12;100.00;100577.03;4927033;28;20408;-70
2023/12/01 04:56:19;;;;;;;23.05;11.18;;;;;;;-4.10;100.00;100580.25;4908804;28;20058;-69
2023/12/01 04:58:45;;;;;;;20.52;10.18;;;;;;;-4.07;100.00;100582.50;4938272;28;20135;-69
2023/12/01 05:01:11;;;;;;;22.50;10.98;;;;;;;-4.03;100.00;100577.75;4944664;28;20027;-70
2023/12/01 05:03:37;;;;;;;23.85;12.23;;;;;;;-3.97;100.00;100588.31;4940352;28;20038;-69
2023/12/01 05:06:03;;;;;;;21.25;10.75;;;;;;;-3.97;100.00;100585.69;4925475;28;20650;-70
2023/12/01 05:08:29;;;;;;;19.42;10.60;;;;;;;-3.90;100.00;100586.59;4920966;29;20042;-70
2023/12/01 05:10:56;;;;;;;19.13;10.23;;;;;;;-3.85;100.00;100592.13;4938229;28;20027;-69
2023/12/01 05:13:21;;;;;;;20.50;10.52;;;;;;;-3.79;100.00;100585.38;4908623;29;20034;-70
2023/12/01 05:15:47;;;;;;;19.33;10.10;;;;;;;-3.76;100.00;100577.16;4945256;28;20347;-69
2023/12/01 05:18:13;;;;;;;19.10;10.02;;;;;;;-3.73;100.00;100578.56;4910090;29;20042;-69
2023/12/01 05:20:39;;;;;;;17.38;9.52;;;;;;;-3.69;100.00;100585.91;4915313;28;20047;-69
2023/12/01 05:23:09;;;;;;;20.67;10.52;;;;;;;-3.69;100.00;100591.13;4903561;29;20108;-69
2023/12/01 05:25:37;;;;;;;17.35;9.70;;;;;;;-3.65;100.00;100592.41;4947375;28;20066;-69
2023/12/01 05:28:05;;;;;;;17.02;9.23;;;;;;;-3.60;100.00;100597.09;4941439;28;20485;-69
2023/12/01 05:30:33;;;;;;;18.15;10.20;;;;;;;-3.59;100.00;100589.06;4931445;28;20102;-69
2023/12/01 05:32:59;;;;;;;17.98;8.95;;;;;;;-3.58;100.00;100593.31;4927223;29;20532;-69
2023/12/01 05:35:26;;;;;;;20.48;9.60;;;;;;;-3.54;100.00;100598.16;4943768;28;20038;-68
2023/12/01 05:37:54;;;;;;;16.88;9.52;;;;;;;-3.52;100.00;100601.41;4939632;28;20047;-69
2023/12/01 05:40:27;;;;;;;17.50;9.05;;;;;;;-3.52;100.00;100601.41;4944857;28;20501;-69
2023/12/01 05:42:55;;;;;;;18.30;9.93;;;;;;;-3.49;100.00;100606.31;4907322;28;20040;-69
2023/12/01 05:45:22;;;;;;;17.58;9.05;;;;;;;-3.44;100.00;100609.19;4923390;28;20039;-70
2023/12/01 05:47:49;;;;;;;16.33;8.95;;;;;;;-3.43;100.00;100606.38;4922201;28;20055;-69
2023/12/01 05:50:23;;;;;;;18.10;9.00;;;;;;;-3.39;100.00;100609.44;4924134;28;20045;-69
2023/12/01 05:52:51;;;;;;;18.67;9.43;;;;;;;-3.38;100.00;100613.72;4938933;28;20070;-70
2023/12/01 05:55:19;;;;;;;18.20;9.45;;;;;;;-3.36;100.00;100606.47;4924268;29;20031;-69
2023/12/01 05:57:50;;;;;;;25.20;12.70;;;;;;;-3.37;100.00;100613.53;4919423;28;20039;-69
2023/12/01 06:00:21;;;;;;;27.48;14.18;;;;;;;-3.35;100.00;100613.34;4943493;28;20115;-69
2023/12/01 06:02:50;;;;;;;32.33;15.65;;;;;;;-3.33;100.00;100603.47;4927620;28;20126;-70
2023/12/01 06:05:20;;;;;;;31.45;14.77;;;;;;;-3.32;100.00;100612.97;4906348;29;20425;-69
2023/12/01 06:07:54;;;;;;;32.85;15.82;;;;;;;-3.32;100.00;100607.72;4936492;28;20036;-69
2023/12/01 06:10:21;;;;;;;33.90;14.15;;;;;;;-3.32;100.00;100607.72;4937042;28;20482;-69
2023/12/01 06:12:47;;;;;;;;;;;;;;;-3.29;100.00;100604.75;4928408;28;20445;-69
2023/12/01 06:15:14;;;;;;;30.90;13.95;;;;;;;-3.29;100.00;100617.84;4929175;29;19972;-70
2023/12/01 06:17:42;;;;;;;28.63;13.27;;;;;;;-3.27;100.00;100613.22;4912196;28;20040;-69
2023/12/01 06:20:17;;;;;;;29.08;14.60;;;;;;;-3.26;100.00;100619.28;4909356;29;20039;-69
2023/12/01 06:22:53;;;;;;;34.22;14.68;;;;;;;-3.27;100.00;100615.03;4929335;28;20035;-70
2023/12/01 06:25:20;;;;;;;30.00;14.48;;;;;;;-3.28;100.00;100616.84;4923933;29;20089;-71
2023/12/01 06:27:49;;;;;;;28.88;12.95;;;;;;;-3.25;100.00;100616.50;4931776;28;20040;-70
2023/12/01 06:30:15;;;;;;;25.75;13.20;;;;;;;-3.25;100.00;100624.34;4918752;28;20058;-70
2023/12/01 06:32:42;;;;;;;24.05;11.63;;;;;;;-3.26;100.00;100620.09;4927330;28;20030;-70
2023/12/01 06:35:13;;;;;;;25.05;12.43;;;;;;;-3.23;100.00;100626.78;4922660;29;20039;-70
2023/12/01 06:37:39;;;;;;;20.58;10.55;;;;;;;-3.18;100.00;100624.44;4929836;28;20045;-70
2023/12/01 06:40:11;;;;;;;27.55;13.18;;;;;;;-3.16;100.00;100630.31;4913650;28;20035;-69
2023/12/01 06:42:44;;;;;;;24.73;11.48;;;;;;;-3.15;100.00;100632.72;4921456;28;20069;-70
2023/12/01 06:45:11;;;;;;;26.50;12.18;;;;;;;-3.13;100.00;100638.59;4907680;29;20135;-69
2023/12/01 06:47:40;;;;;;;21.33;10.32;;;;;;;-3.11;100.00;100647.09;4942750;28;20023;-69
2023/12/01 06:50:06;;;;;;;20.05;9.93;;;;;;;-3.11;100.00;100636.63;4949368;28;20047;-69
2023/12/01 06:52:33;;;;;;;24.50;11.38;;;;;;;-3.10;100.00;100642.69;4926746;29;20591;-70
2023/12/01 06:54:58;;;;;;;24.95;11.82;;;;;;;-3.09;100.00;100647.72;4938650;28;20052;-70
2023/12/01 06:57:25;;;;;;;23.02;10.93;;;;;;;-3.06;100.00;100654.41;4921058;29;20110;-70
2023/12/01 06:59:52;;;;;;;23.48;11.55;;;;;;;-3.05;100.00;100662.09;4946703;28;20047;-69
2023/12/01 07:02:19;;;;;;;21.95;10.10;;;;;;;-3.05;100.00;100656.84;4909744;29;20524;-70
2023/12/01 07:04:44;;;;;;;21.63;10.75;;;;;;;-3.00;100.00;100655.47;4944322;28;20081;-70
2023/12/01 07:07:12;;;;;;;23.67;12.07;;;;;;;-3.00;100.00;100650.25;4928322;28;20485;-69
2023/12/01 07:09:44;;;;;;;24.63;11.90;;;;;;;-2.97;100.00;100655.13;4942688;28;20126;-70
2023/12/01 07:12:10;;;;;;;24.67;12.45;;;;;;;-2.97;100.00;100655.13;4922007;29;20058;-69
2023/12/01 07:14:36;;;;;;;27.90;13.30;;;;;;;-2.99;100.00;100660.53;4909808;28;20074;-69
2023/12/01 07:17:05;;;;;;;27.67;13.63;;;;;;;-2.99;100.00;100670.19;4922598;28;20061;-69
2023/12/01 07:19:32;;;;;;;27.77;13.00;;;;;;;-2.98;100.00;100671.81;4909115;28;20036;-70
2023/12/01 07:21:59;;;;;;;23.52;11.60;;;;;;;-2.99;100.00;100668.41;4907513;28;21043;-69
2023/12/01 07:24:24;;;;;;;27.05;12.60;;;;;;;-2.98;100.00;100672.66;4913201;29;20051;-70
2023/12/01 07:26:51;;;;;;;23.27;11.90;;;;;;;-2.96;100.00;100670.66;4945708;28;20033;-69
2023/12/01 07:29:18;;;;;;;21.92;11.80;;;;;;;-2.96;100.00;100680.34;4928015;28;20045;-69
2023/12/01 07:31:44;;;;;;;25.52;12.00;;;;;;;-2.96;100.00;100685.56;4922714;28;20035;-70
2023/12/01 07:34:13;;;;;;;25.00;11.77;;;;;;;-2.93;100.00;100693.06;4942511;28;20042;-70
2023/12/01 07:36:40;;;;;;;26.05;12.70;;;;;;;-2.93;100.00;100693.88;4941325;28;20039;-68
2023/12/01 07:39:06;;;;;;;22.52;11.75;;;;;;;-2.91;100.00;100694.53;4895843;28;20055;-70
2023/12/01 07:41:32;;;;;;;24.02;10.18;;;;;;;-2.90;100.00;100703.19;4940887;28;20042;-70
2023/12/01 07:43:58;;;;;;;23.63;11.27;;;;;;;-2.88;100.00;100706.44;4941059;28;20039;-70
2023/12/01 07:46:24;;;;;;;23.23;10.63;;;;;;;-2.86;100.00;100704.44;4910178;28;20194;-70
2023/12/01 07:48:50;;;;;;;25.40;12.20;;;;;;;-2.84;100.00;100705.09;4911934;28;20066;-70
2023/12/01 07:51:19;;;;;;;24.40;11.65;;;;;;;-2.82;100.00;100716.19;4921748;28;20034;-70
2023/12/01 07:53:44;;;;;;;27.85;12.32;;;;;;;-2.83;100.00;100712.75;4911551;28;20829;-70
2023/12/01 07:56:18;;;;;;;25.85;10.88;;;;;;;-2.82;100.00;100713.56;4930845;28;20071;-70
2023/12/01 07:58:44;;;;;;;31.88;12.30;;;;;;;-2.78;100.00;100720.91;4920609;28;20047;-69
2023/12/01 08:01:14;;;;;;;25.17;11.48;;;;;;;-2.78;100.00;100720.91;4931615;29;20031;-69
2023/12/01 08:03:48;;;;;;;27.15;11.90;;;;;;;-2.78;100.00;100720.91;4920653;29;20043;-69
2023/12/01 08:06:14;;;;;;;24.25;11.35;;;;;;;-2.75;100.00;100714.47;4922982;28;20035;-70
2023/12/01 08:08:41;;;;;;;24.73;12.02;;;;;;;-2.74;100.00;100718.72;4926868;28;20039;-70
2023/12/01 08:11:07;;;;;;;23.83;10.55;;;;;;;-2.73;100.00;100719.50;4939534;28;20464;-69
2023/12/01 08:13:35;;;;;;;25.73;11.55;;;;;;;-2.71;100.00;100730.63;4929201;29;20050;-70
2023/12/01 08:16:01;;;;;;;26.02;11.93;;;;;;;-2.73;100.00;100722.94;4924796;28;20039;-69
2023/12/01 08:18:26;;;;;;;28.35;12.57;;;;;;;-2.73;100.00;100728.19;4922750;28;20043;-69
2023/12/01 08:20:52;;;;;;;25.73;11.55;;;;;;;-2.71;100.00;100720.94;4929580;28;20571;-70
2023/12/01 08:23:18;;;;;;;22.33;10.57;;;;;;;-2.69;100.00;100729.47;4922984;29;20043;-70
2023/12/01 08:25:44;;;;;;;23.10;11.55;;;;;;;-2.66;100.00;100734.31;4944065;28;20086;-69
2023/12/01 08:28:10;;;;;;;23.67;11.68;;;;;;;-2.65;100.00;100735.13;4911359;28;20027;-70
2023/12/01 08:30:36;;;;;;;26.08;11.50;;;;;;;-2.64;100.00;100728.91;4895355;29;20046;-71
2023/12/01 08:33:03;;;;;;;23.45;11.02;;;;;;;-2.61;100.00;100737.22;4950298;28;20167;-70
2023/12/01 08:35:29;;;;;;;23.48;11.43;;;;;;;-2.58;100.00;100736.84;4928886;28;20031;-70
2023/12/01 08:37:55;;;;;;;27.17;12.55;;;;;;;-2.58;100.00;100736.84;4893150;29;20131;-69
2023/12/01 08:40:23;;;;;;;22.65;11.90;;;;;;;-2.56;100.00;100742.75;4926734;28;20035;-70
2023/12/01 08:42:52;;;;;;;24.80;12.27;;;;;;;-2.53;100.00;100750.22;4922868;28;20038;-69
2023/12/01 08:45:17;;;;;;;25.83;11.95;;;;;;;-2.52;100.00;100758.91;4932190;28;20114;-69
2023/12/01 08:47:43;;;;;;;25.55;11.98;;;;;;;-2.52;100.00;100756.28;4941423;28;20030;-69
2023/12/01 08:50:10;;;;;;;23.58;11.52;;;;;;;-2.49;100.00;100761.97;4896288;28;20053;-68
2023/12/01 08:52:39;;;;;;;;;;;;;;;-2.48;100.00;100760.16;4908899;29;20043;-69
2023/12/01 08:55:06;;;;;;;24.90;12.75;;;;;;;-2.48;100.00;100757.56;4910689;28;19925;-70
2023/12/01 08:57:32;;;;;;;26.52;12.75;;;;;;;-2.47;100.00;100756.53;4909691;29;20093;-70
2023/12/01 08:59:58;;;;;;;24.05;12.32;;;;;;;-2.45;100.00;100761.59;4911044;28;20107;-71
2023/12/01 09:02:24;;;;;;;23.35;11.05;;;;;;;-2.44;100.00;100768.47;4922394;29;20118;-70
2023/12/01 09:04:49;;;;;;;23.23;11.57;;;;;;;-2.48;100.00;100754.94;4934554;28;20050;-70
2023/12/01 09:07:15;;;;;;;27.05;12.57;;;;;;;-2.45;100.00;100758.97;4941256;28;20037;-71
2023/12/01 09:09:41;;;;;;;26.00;12.73;;;;;;;-2.45;100.00;100756.34;4925741;28;20052;-70
2023/12/01 09:12:06;;;;;;;25.05;11.75;;;;;;;-2.47;100.00;100762.59;4923014;28;20378;-70
2023/12/01 09:14:32;;;;;;;31.63;13.63;;;;;;;-2.44;100.00;100760.59;4905277;28;20046;-68
2023/12/01 09:16:58;;;;;;;29.27;13.25;;;;;;;-2.48;100.00;100766.22;4928494;28;20043;-71
2023/12/01 09:19:23;;;;;;;25.60;12.63;;;;;;;-2.49;100.00;100766.41;4925912;28;20093;-68
2023/12/01 09:21:49;;;;;;;22.73;11.80;;;;;;;-2.50;100.00;100768.22;4896455;28;20031;-69
2023/12/01 09:24:15;;;;;;;25.08;12.52;;;;;;;-2.50;100.00;100776.09;4906032;29;20082;-70
2023/12/01 09:26:41;;;;;;;24.48;12.60;;;;;;;-2.49;100.00;100766.41;4945909;28;20062;-70
2023/12/01 09:29:08;;;;;;;24.55;12.02;;;;;;;-2.53;100.00;100771.19;4925593;28;20070;-70
2023/12/01 09:31:45;;;;;;;23.65;12.35;;;;;;;-2.50;100.00;100765.59;4926497;28;20038;-69
2023/12/01 09:34:11;;;;;;;24.83;12.32;;;;;;;-2.53;100.00;100773.00;4918915;28;20038;-70
2023/12/01 09:36:38;;;;;;;26.42;12.70;;;;;;;-2.53;100.00;100773.81;4917371;28;20035;-70
2023/12/01 09:39:05;;;;;;;23.23;12.45;;;;;;;-2.53;100.00;100776.44;4920817;28;20043;-70
2023/12/01 09:41:34;;;;;;;23.15;11.23;;;;;;;-2.49;100.00;100769.03;4925840;29;20043;-70
2023/12/01 09:44:01;;;;;;;23.33;11.90;;;;;;;-2.45;100.00;100774.72;4911346;28;20031;-70
2023/12/01 09:46:35;;;;;;;24.92;12.35;;;;;;;-2.43;100.00;100778.00;4927631;28;20042;-70
2023/12/01 09:49:05;;;;;;;26.75;12.20;;;;;;;-2.39;100.00;100772.16;4944937;28;20059;-70
2023/12/01 09:51:36;;;;;;;28.95;12.88;;;;;;;-2.41;100.00;100774.19;4947467;28;20127;-71
2023/12/01 09:54:03;;;;;;;23.98;11.82;;;;;;;-2.38;100.00;100778.22;4929349;28;20047;-70
2023/12/01 09:56:30;;;;;;;26.08;11.43;;;;;;;-2.39;100.00;100771.38;4931765;29;20428;-70
2023/12/01 09:58:56;;;;;;;27.95;12.43;;;;;;;-2.35;100.00;100775.25;4924684;28;20207;-70
2023/12/01 10:01:23;;;;;;;24.00;11.55;;;;;;;-2.30;100.00;100783.38;4920549;29;20039;-71
2023/12/01 10:03:48;;;;;;;24.13;13.10;;;;;;;-2.29;100.00;100769.28;4922450;28;20126;-70
2023/12/01 10:06:14;;;;;;;28.20;12.52;;;;;;;-2.28;100.00;100770.91;4929236;29;20915;-70
2023/12/01 10:08:40;;;;;;;27.02;12.95;;;;;;;-2.28;100.00;100765.66;4943829;28;20069;-70
2023/12/01 10:11:23;;;;;;;29.02;13.48;;;;;;;-2.24;100.00;100769.50;4912722;28;20134;-70
2023/12/01 10:13:50;;;;;;;28.08;12.95;;;;;;;-2.20;100.00;100770.78;4947112;28;20035;-70
2023/12/01 10:16:20;;;;;;;28.10;12.70;;;;;;;-2.14;100.00;100774.47;4917040;29;20504;-70
2023/12/01 10:18:57;;;;;;;23.88;11.18;;;;;;;-2.14;100.00;100770.03;4945811;28;20527;-70
2023/12/01 10:21:46;;;;;;;24.27;12.07;;;;;;;-2.13;100.00;100768.22;4943724;28;20378;-70
2023/12/01 10:24:22;;;;;;;24.55;11.57;;;;;;;-2.12;100.00;100768.03;4944678;28;20061;-70
2023/12/01 10:26:49;;;;;;;29.38;13.65;;;;;;;-2.10;100.00;100768.69;4931457;29;20057;-70
2023/12/01 10:29:28;;;;;;;23.17;11.20;;;;;;;-2.08;100.00;100766.69;4916845;29;20043;-71
2023/12/01 10:32:04;;;;;;;22.77;11.30;;;;;;;-2.03;100.00;100772.19;4927460;28;20035;-69
2023/12/01 10:34:30;;;;;;;27.60;12.57;;;;;;;-2.00;100.00;100757.88;4931543;28;20050;-70
2023/12/01 10:36:56;;;;;;;25.70;12.45;;;;;;;-1.99;100.00;100770.78;4949283;28;20032;-69
2023/12/01 10:39:27;;;;;;;23.42;11.65;;;;;;;-2.01;100.00;100761.50;4947379;28;20942;-69
2023/12/01 10:41:57;;;;;;;25.63;12.30;;;;;;;-1.98;100.00;100763.72;4926829;28;20158;-70
2023/12/01 10:44:25;;;;;;;20.90;10.60;;;;;;;-1.92;100.00;100763.00;4942194;28;20032;-69
2023/12/01 10:46:52;;;;;;;22.48;11.43;;;;;;;-1.87;100.00;100771.13;4918398;29;20032;-71
2023/12/01 10:49:20;;;;;;;23.13;10.88;;;;;;;-1.84;100.00;100760.22;4925983;28;20489;-70
2023/12/01 10:51:46;;;;;;;23.38;11.63;;;;;;;-1.82;100.00;100758.25;4934996;28;20510;-70
2023/12/01 10:54:15;;;;;;;21.65;10.63;;;;;;;-1.78;100.00;100767.38;4934250;28;20046;-70
2023/12/01 10:56:55;;;;;;;22.73;11.02;;;;;;;-1.76;100.00;100761.91;4940955;28;20039;-70
2023/12/01 10:59:24;;;;;;;19.85;10.38;;;;;;;-1.76;100.00;100760.13;4923215;29;20027;-69
2023/12/01 11:01:50;;;;;;;23.08;11.23;;;;;;;-1.70;100.00;100755.91;4944931;28;20043;-70
2023/12/01 11:04:27;;;;;;;22.17;11.02;;;;;;;-1.62;100.00;100753.19;4893173;29;20046;-69
2023/12/01 11:07:11;;;;;;;21.30;10.25;;;;;;;-1.55;100.00;100759.31;4927529;28;20052;-69